createdAt,value
2017-11-04T00:01:37.313Z,100100.23
2017-11-04T00:04:04.721Z,100095.25
2017-11-04T00:06:32.106Z,100083.12
2017-11-04T00:08:59.494Z,100088.73
2017-11-04T00:11:26.898Z,100083.61
2017-11-04T00:13:54.286Z,100084.22
2017-11-04T00:16:21.674Z,100079.81
2017-11-04T00:18:49.080Z,100078.41
2017-11-04T00:21:16.466Z,100074.13
2017-11-04T00:23:43.859Z,100072.80
2017-11-04T00:26:11.265Z,100065.03
2017-11-04T00:28:38.650Z,100061.36
2017-11-04T00:31:06.034Z,100056.58
2017-11-04T00:33:33.442Z,100056.48
2017-11-04T00:36:00.825Z,100041.78
2017-11-04T00:38:28.215Z,100048.13
2017-11-04T00:40:55.622Z,100050.36
2017-11-04T00:43:23.011Z,100051.69
2017-11-04T00:45:50.398Z,100050.17
2017-11-04T00:48:17.801Z,100047.41
2017-11-04T00:50:45.195Z,100045.58
2017-11-04T00:53:12.583Z,100045.78
2017-11-04T00:55:39.988Z,100043.74
2017-11-04T00:58:07.376Z,100036.91
2017-11-04T01:00:34.764Z,100032.33
2017-11-04T01:03:02.178Z,100032.63
2017-11-04T01:05:29.574Z,100032.94
2017-11-04T01:07:56.962Z,100030.59
2017-11-04T01:10:24.365Z,100034.47
2017-11-04T01:12:51.754Z,100024.38
2017-11-04T01:15:19.139Z,100033.25
2017-11-04T01:17:46.541Z,100026.08
2017-11-04T01:20:13.933Z,100020.37
2017-11-04T01:22:41.322Z,100025.38
2017-11-04T01:25:08.722Z,100016.16
2017-11-04T01:27:36.109Z,100014.52
2017-11-04T01:30:03.501Z,100016.27
2017-11-04T01:32:30.898Z,100011.98
2017-11-04T01:34:58.286Z,100013.31
2017-11-04T01:37:25.683Z,100009.52
2017-11-04T01:39:53.087Z,100004.32
2017-11-04T01:42:20.470Z,99995.86
2017-11-04T01:44:47.854Z,99996.06
2017-11-04T01:47:15.299Z,99980.55
2017-11-04T01:49:42.666Z,99983.39
2017-11-04T01:52:10.064Z,99970.95
2017-11-04T01:54:37.460Z,99970.22
2017-11-04T01:57:04.846Z,99972.66
2017-11-04T01:59:32.234Z,99973.38
2017-11-04T02:01:59.638Z,99970.22
2017-11-04T02:04:27.033Z,99966.84
2017-11-04T02:06:54.410Z,99967.56
2017-11-04T02:09:21.818Z,99961.22
2017-11-04T02:11:49.215Z,99954.89
2017-11-04T02:14:16.600Z,99952.35
2017-11-04T02:16:44.001Z,99947.34
2017-11-04T02:19:11.382Z,99942.94
2017-11-04T02:21:38.765Z,99945.29
2017-11-04T02:24:06.170Z,99937.52
2017-11-04T02:26:33.563Z,99930.08
2017-11-04T02:29:00.942Z,99925.58
2017-11-04T02:31:28.357Z,99919.24
2017-11-04T02:33:55.721Z,99921.70
2017-11-04T02:36:23.112Z,99915.79
2017-11-04T02:38:50.511Z,99917.23
2017-11-04T02:41:17.895Z,99906.50
2017-11-04T02:43:45.277Z,99901.08
2017-11-04T02:46:12.686Z,99902.10
2017-11-04T02:48:40.070Z,99900.77
2017-11-04T02:51:07.455Z,99905.78
2017-11-04T02:53:34.851Z,99900.47
2017-11-04T02:56:02.236Z,99901.30
2017-11-04T02:58:29.616Z,99900.35
2017-11-04T03:00:57.015Z,99900.98
2017-11-04T03:03:24.401Z,99893.33
2017-11-04T03:05:51.786Z,99899.85
2017-11-04T03:08:19.189Z,99896.59
2017-11-04T03:10:46.578Z,99903.11
2017-11-04T03:13:13.962Z,99909.14
2017-11-04T03:15:41.357Z,99907.09
2017-11-04T03:18:08.735Z,99904.96
2017-11-04T03:20:36.121Z,99904.66
2017-11-04T03:23:03.533Z,99905.64
2017-11-04T03:25:30.915Z,99896.88
2017-11-04T03:27:58.297Z,99895.97
2017-11-04T03:30:25.699Z,99888.00
2017-11-04T03:32:53.083Z,99897.78
2017-11-04T03:35:20.466Z,99895.55
2017-11-04T03:37:47.866Z,99893.80
2017-11-04T03:40:15.246Z,99887.99
2017-11-04T03:42:42.627Z,99889.63
2017-11-04T03:45:10.033Z,99885.94
2017-11-04T03:47:37.425Z,99892.27
2017-11-04T03:50:04.804Z,99887.16
2017-11-04T03:52:32.206Z,99887.99
2017-11-04T03:54:59.609Z,99886.98
2017-11-04T03:57:26.971Z,99884.41
2017-11-04T03:59:54.366Z,99886.58
2017-11-04T04:02:21.750Z,99888.41
2017-11-04T04:04:49.134Z,99885.27
2017-11-04T04:07:16.530Z,99888.64
2017-11-04T04:09:43.913Z,99883.11
2017-11-04T04:12:11.295Z,99885.27
2017-11-04T04:14:38.698Z,99878.82
2017-11-04T04:17:06.078Z,99878.21
2017-11-04T04:19:33.462Z,99864.82
2017-11-04T04:22:00.869Z,99864.81
2017-11-04T04:24:28.246Z,99867.89
2017-11-04T04:26:55.631Z,99854.30
2017-11-04T04:29:23.030Z,99850.81
2017-11-04T04:31:50.415Z,99842.33
2017-11-04T04:34:17.802Z,99835.76
2017-11-04T04:36:45.211Z,99841.06
2017-11-04T04:39:12.602Z,99834.84
2017-11-04T04:41:39.986Z,99827.46
2017-11-04T04:44:07.386Z,99834.72
2017-11-04T04:46:34.770Z,99830.62
2017-11-04T04:49:02.154Z,99820.20
2017-11-04T04:51:29.554Z,99822.55
2017-11-04T04:53:56.943Z,99822.41
2017-11-04T04:56:24.327Z,99826.06
2017-11-04T04:58:52.530Z,99826.94
2017-11-04T05:01:19.910Z,99824.38
2017-11-04T05:03:47.297Z,99811.34
2017-11-04T05:06:14.694Z,99813.89
2017-11-04T05:08:42.073Z,99808.34
2017-11-04T05:11:09.458Z,99808.73
2017-11-04T05:13:36.859Z,99797.95
2017-11-04T05:16:04.247Z,99804.90
2017-11-04T05:18:31.638Z,99802.66
2017-11-04T05:20:59.059Z,99793.14
2017-11-04T05:23:26.438Z,99794.64
2017-11-04T05:25:53.821Z,99798.62
2017-11-04T05:28:21.223Z,99785.84
2017-11-04T05:30:48.606Z,99785.02
2017-11-04T05:33:15.994Z,99782.77
2017-11-04T05:35:43.389Z,99774.53
2017-11-04T05:38:10.773Z,99768.30
2017-11-04T05:40:38.166Z,99769.92
2017-11-04T05:43:05.570Z,99764.03
2017-11-04T05:45:32.956Z,99764.03
2017-11-04T05:48:00.337Z,99764.44
2017-11-04T05:50:27.737Z,99758.59
2017-11-04T05:52:55.123Z,99761.98
2017-11-04T05:55:22.517Z,99759.02
2017-11-04T05:57:49.909Z,99758.94
2017-11-04T06:00:17.293Z,99765.93
2017-11-04T06:02:44.678Z,99757.26
2017-11-04T06:05:12.083Z,99760.35
2017-11-04T06:07:39.469Z,99759.06
2017-11-04T06:10:06.851Z,99757.45
2017-11-04T06:12:34.274Z,99762.27
2017-11-04T06:15:01.661Z,99760.58
2017-11-04T06:17:29.044Z,99754.14
2017-11-04T06:19:56.437Z,99760.08
2017-11-04T06:22:23.820Z,99757.72
2017-11-04T06:24:51.202Z,99752.63
2017-11-04T06:27:18.706Z,99756.11
2017-11-04T06:29:46.094Z,99756.32
2017-11-04T06:32:13.477Z,99763.05
2017-11-04T06:34:40.878Z,99761.92
2017-11-04T06:37:08.265Z,99767.22
2017-11-04T06:39:35.650Z,99771.28
2017-11-04T06:42:03.052Z,99772.27
2017-11-04T06:44:30.436Z,99771.03
2017-11-04T06:46:57.822Z,99762.73
2017-11-04T06:49:25.230Z,99763.33
2017-11-04T06:51:52.609Z,99771.49
2017-11-04T06:54:19.997Z,99767.89
2017-11-04T06:56:47.397Z,99767.28
2017-11-04T06:59:14.787Z,99769.30
2017-11-04T07:01:42.166Z,99771.61
2017-11-04T07:04:09.579Z,99774.57
2017-11-04T07:06:36.966Z,99773.47
2017-11-04T07:09:04.353Z,99763.87
2017-11-04T07:11:31.750Z,99763.57
2017-11-04T07:13:59.135Z,99761.02
2017-11-04T07:16:26.521Z,99756.36
2017-11-04T07:18:53.918Z,99752.69
2017-11-04T07:21:21.306Z,99758.83
2017-11-04T07:23:48.693Z,99755.69
2017-11-04T07:26:16.090Z,99751.40
2017-11-04T07:28:43.474Z,99750.57
2017-11-04T07:31:10.862Z,99751.72
2017-11-04T07:33:38.257Z,99756.94
2017-11-04T07:36:05.641Z,99754.49
2017-11-04T07:38:33.033Z,99751.09
2017-11-04T07:41:00.414Z,99752.20
2017-11-04T07:43:27.793Z,99751.52
2017-11-04T07:45:55.188Z,99751.40
2017-11-04T07:48:22.581Z,99745.05
2017-11-04T07:50:49.977Z,99745.77
2017-11-04T07:53:17.355Z,99744.44
2017-11-04T07:55:44.862Z,99745.47
2017-11-04T07:58:12.250Z,99739.63
2017-11-04T08:00:39.638Z,99739.02
2017-11-04T08:03:07.035Z,99738.09
2017-11-04T08:05:34.422Z,99732.52
2017-11-04T08:08:01.805Z,99738.55
2017-11-04T08:10:29.213Z,99732.77
2017-11-04T08:12:56.589Z,99735.30
2017-11-04T08:15:23.985Z,99736.02
2017-11-04T08:17:51.387Z,99737.29
2017-11-04T08:20:18.774Z,99732.98
2017-11-04T08:22:46.162Z,99727.90
2017-11-04T08:25:13.564Z,99729.53
2017-11-04T08:27:40.949Z,99723.44
2017-11-04T08:30:08.341Z,99727.34
2017-11-04T08:32:35.750Z,99719.73
2017-11-04T08:35:03.141Z,99712.67
2017-11-04T08:37:30.538Z,99707.03
2017-11-04T08:39:57.942Z,99704.27
2017-11-04T08:42:25.335Z,99709.19
2017-11-04T08:44:52.726Z,99702.41
2017-11-04T08:47:20.123Z,99701.13
2017-11-04T08:49:47.515Z,99694.70
2017-11-04T08:52:14.907Z,99694.36
2017-11-04T08:54:42.314Z,99693.52
2017-11-04T08:57:09.698Z,99691.55
2017-11-04T08:59:37.091Z,99700.09
2017-11-04T09:02:04.519Z,99697.44
2017-11-04T09:04:31.908Z,99700.20
2017-11-04T09:06:59.294Z,99697.92
2017-11-04T09:09:26.693Z,99700.66
2017-11-04T09:11:54.081Z,99697.23
2017-11-04T09:14:21.498Z,99701.61
2017-11-04T09:16:48.898Z,99694.81
2017-11-04T09:19:16.295Z,99698.38
2017-11-04T09:21:43.688Z,99694.18
2017-11-04T09:24:11.086Z,99690.09
2017-11-04T09:26:38.478Z,99691.34
2017-11-04T09:29:05.863Z,99681.17
2017-11-04T09:31:33.319Z,99675.18
2017-11-04T09:34:00.714Z,99679.70
2017-11-04T09:36:28.102Z,99671.17
2017-11-04T09:38:55.503Z,99665.94
2017-11-04T09:41:22.904Z,99669.42
2017-11-04T09:43:50.286Z,99680.91
2017-11-04T09:46:17.690Z,99678.52
2017-11-04T09:48:45.087Z,99659.32
2017-11-04T09:51:12.470Z,99661.52
2017-11-04T09:53:39.875Z,99666.88
2017-11-04T09:56:07.271Z,99668.00
2017-11-04T09:58:34.671Z,99678.84
2017-11-04T10:01:02.071Z,99673.06
2017-11-04T10:03:29.458Z,99676.60
2017-11-04T10:05:56.921Z,99679.25
2017-11-04T10:08:24.317Z,99676.59
2017-11-04T10:10:51.716Z,99693.42
2017-11-04T10:13:19.098Z,99682.21
2017-11-04T10:15:46.508Z,99684.52
2017-11-04T10:18:13.901Z,99685.86
2017-11-04T10:20:41.282Z,99673.31
2017-11-04T10:23:08.793Z,99687.30
2017-11-04T10:25:36.187Z,99668.84
2017-11-04T10:28:03.599Z,99657.57
2017-11-04T10:30:31.098Z,99669.03
2017-11-04T10:32:58.483Z,99660.84
2017-11-04T10:35:25.884Z,99658.46
2017-11-04T10:37:53.283Z,99638.78
2017-11-04T10:40:20.679Z,99635.35
2017-11-04T10:42:48.114Z,99638.27
2017-11-04T10:45:16.811Z,99632.96
2017-11-04T10:47:44.314Z,99622.70
2017-11-04T10:50:11.690Z,99624.68
2017-11-04T10:52:39.181Z,99619.69
2017-11-04T10:55:06.554Z,99612.16
2017-11-04T10:57:33.962Z,99601.94
2017-11-04T11:00:01.431Z,99611.66
2017-11-04T11:02:28.816Z,99593.98
2017-11-04T11:04:56.255Z,99596.34
2017-11-04T11:07:23.679Z,99600.53
2017-11-04T11:09:51.069Z,99593.73
2017-11-04T11:12:18.461Z,99578.98
2017-11-04T11:14:45.877Z,99574.95
2017-11-04T11:17:13.269Z,99564.40
2017-11-04T11:19:40.659Z,99569.56
2017-11-04T11:22:08.075Z,99568.58
2017-11-04T11:24:35.484Z,99576.34
2017-11-04T11:27:02.854Z,99564.89
2017-11-04T11:29:30.255Z,99568.71
2017-11-04T11:31:57.646Z,99580.95
2017-11-04T11:34:25.098Z,99576.80
2017-11-04T11:36:52.486Z,99563.86
2017-11-04T11:39:19.933Z,99571.73
2017-11-04T11:41:47.310Z,99571.53
2017-11-04T11:44:14.715Z,99558.45
2017-11-04T11:46:42.141Z,99554.98
2017-11-04T11:49:09.542Z,99552.11
2017-11-04T11:51:36.946Z,99556.87
2017-11-04T11:54:04.338Z,99563.97
2017-11-04T11:56:31.727Z,99564.23
2017-11-04T11:58:59.142Z,99559.14
2017-11-04T12:01:26.530Z,99562.88
2017-11-04T12:03:53.937Z,99553.84
2017-11-04T12:06:21.441Z,99538.75
2017-11-04T12:08:48.835Z,99540.16
2017-11-04T12:11:16.225Z,99533.78
2017-11-04T12:13:43.621Z,99536.70
2017-11-04T12:16:11.010Z,99534.98
2017-11-04T12:18:38.404Z,99533.09
2017-11-04T12:21:05.806Z,99528.42
2017-11-04T12:23:33.197Z,99534.69
2017-11-04T12:26:00.594Z,99535.83
2017-11-04T12:28:27.998Z,99532.15
2017-11-04T12:30:55.387Z,99523.52
2017-11-04T12:33:22.774Z,99526.91
2017-11-04T12:35:50.185Z,99516.30
2017-11-04T12:38:17.582Z,99516.36
2017-11-04T12:40:44.976Z,99529.43
2017-11-04T12:43:16.307Z,99524.44
2017-11-04T12:45:50.988Z,99520.11
2017-11-04T12:48:18.434Z,99516.30
2017-11-04T12:50:45.849Z,99497.29
2017-11-04T12:53:13.238Z,99502.48
2017-11-04T12:55:40.751Z,99506.22
2017-11-04T12:58:08.138Z,99495.87
2017-11-04T13:00:35.542Z,99496.65
2017-11-04T13:03:02.954Z,99486.36
2017-11-04T13:05:30.342Z,99490.09
2017-11-04T13:07:57.740Z,99485.67
2017-11-04T13:10:25.163Z,99478.76
2017-11-04T13:12:52.564Z,99470.48
2017-11-04T13:15:19.953Z,99466.06
2017-11-04T13:17:47.375Z,99459.85
2017-11-04T13:20:14.766Z,99466.06
2017-11-04T13:22:42.153Z,99467.56
2017-11-04T13:25:09.611Z,99466.09
2017-11-04T13:27:37.000Z,99470.70
2017-11-04T13:30:04.381Z,99458.59
2017-11-04T13:32:31.806Z,99465.48
2017-11-04T13:34:59.188Z,99464.80
2017-11-04T13:37:26.581Z,99457.74
2017-11-04T13:39:53.978Z,99464.34
2017-11-04T13:42:21.362Z,99461.44
2017-11-04T13:44:48.756Z,99470.70
2017-11-04T13:47:16.158Z,99468.17
2017-11-04T13:49:43.553Z,99455.77
2017-11-04T13:52:10.951Z,99444.89
2017-11-04T13:54:38.354Z,99444.22
2017-11-04T13:57:05.744Z,99445.05
2017-11-04T13:59:33.133Z,99449.33
2017-11-04T14:02:00.539Z,99439.09
2017-11-04T14:04:27.938Z,99445.47
2017-11-04T14:06:55.326Z,99434.84
2017-11-04T14:09:22.739Z,99436.86
2017-11-04T14:11:54.006Z,99428.38
2017-11-04T14:14:21.406Z,99429.07
2017-11-04T14:16:48.803Z,99426.64
2017-11-04T14:19:16.191Z,99420.59
2017-11-04T14:21:43.583Z,99421.44
2017-11-04T14:24:10.983Z,99417.11
2017-11-04T14:26:38.370Z,99418.61
2017-11-04T14:29:05.768Z,99415.09
2017-11-04T14:31:33.162Z,99414.15
2017-11-04T14:34:00.549Z,99414.97
2017-11-04T14:36:27.946Z,99425.88
2017-11-04T14:38:55.343Z,99425.87
2017-11-04T14:41:22.730Z,99417.79
2017-11-04T14:43:50.118Z,99413.34
2017-11-04T14:46:17.541Z,99412.13
2017-11-04T14:48:44.918Z,99413.73
2017-11-04T14:51:12.308Z,99413.44
2017-11-04T14:53:39.714Z,99415.31
2017-11-04T14:56:07.151Z,99422.17
2017-11-04T14:58:34.615Z,99439.83
2017-11-04T15:01:03.014Z,99434.53
2017-11-04T15:03:30.406Z,99437.87
2017-11-04T15:05:57.794Z,99442.83
2017-11-04T15:08:25.225Z,99442.31
2017-11-04T15:10:52.615Z,99438.03
2017-11-04T15:13:20.003Z,99429.55
2017-11-04T15:15:47.413Z,99433.61
2017-11-04T15:18:14.806Z,99422.05
2017-11-04T15:20:42.189Z,99418.56
2017-11-04T15:23:09.589Z,99419.35
2017-11-04T15:25:36.978Z,99423.94
2017-11-04T15:28:04.403Z,99419.52
2017-11-04T15:30:31.790Z,99417.17
2017-11-04T15:32:59.222Z,99420.15
2017-11-04T15:35:26.632Z,99420.56
2017-11-04T15:37:54.034Z,99417.05
2017-11-04T15:40:21.435Z,99412.61
2017-11-04T15:42:48.808Z,99413.57
2017-11-04T15:45:16.207Z,99414.64
2017-11-04T15:47:43.623Z,99413.14
2017-11-04T15:50:11.003Z,99406.81
2017-11-04T15:52:38.398Z,99401.19
2017-11-04T15:55:05.786Z,99401.71
2017-11-04T15:57:33.191Z,99389.24
2017-11-04T16:00:00.595Z,99395.94
2017-11-04T16:02:27.986Z,99397.03
2017-11-04T16:04:55.378Z,99411.12
2017-11-04T16:07:22.806Z,99404.94
2017-11-04T16:09:50.189Z,99404.14
2017-11-04T16:12:17.578Z,99403.06
2017-11-04T16:14:44.993Z,99392.84
2017-11-04T16:17:12.382Z,99401.56
2017-11-04T16:19:39.773Z,99396.20
2017-11-04T16:22:07.185Z,99399.26
2017-11-04T16:24:34.573Z,99399.65
2017-11-04T16:27:01.959Z,99392.52
2017-11-04T16:29:30.306Z,99386.87
2017-11-04T16:31:57.694Z,99390.08
2017-11-04T16:34:25.086Z,99390.22
2017-11-04T16:36:52.860Z,99378.52
2017-11-04T16:39:20.246Z,99378.53
2017-11-04T16:41:47.634Z,99379.71
2017-11-04T16:44:15.043Z,99386.45
2017-11-04T16:46:43.010Z,99378.93
2017-11-04T16:49:10.478Z,99384.44
2017-11-04T16:51:37.918Z,99387.12
2017-11-04T16:54:05.295Z,99393.43
2017-11-04T16:56:32.682Z,99390.86
2017-11-04T16:59:00.092Z,99393.68
2017-11-04T17:01:27.482Z,99389.66
2017-11-04T17:03:55.494Z,99396.79
2017-11-04T17:06:25.420Z,99391.29
2017-11-04T17:08:52.795Z,99401.62
2017-11-04T17:11:20.236Z,99400.29
2017-11-04T17:13:48.362Z,99401.36
2017-11-04T17:16:15.746Z,99400.95
2017-11-04T17:18:43.133Z,99398.94
2017-11-04T17:21:10.599Z,99399.63
2017-11-04T17:23:37.991Z,99405.63
2017-11-04T17:26:05.382Z,99405.50
2017-11-04T17:28:32.790Z,99402.70
2017-11-04T17:31:00.211Z,99401.59
2017-11-04T17:33:27.619Z,99405.31
2017-11-04T17:35:55.130Z,99413.45
2017-11-04T17:38:22.575Z,99406.95
2017-11-04T17:40:50.027Z,99406.43
2017-11-04T17:43:17.497Z,99410.16
2017-11-04T17:45:44.942Z,99408.27
2017-11-04T17:48:12.344Z,99408.82
2017-11-04T17:50:39.755Z,99405.73
2017-11-04T17:53:07.151Z,99401.97
2017-11-04T17:55:34.571Z,99402.48
2017-11-04T17:58:01.967Z,99403.15
2017-11-04T18:00:29.378Z,99401.59
2017-11-04T18:02:56.770Z,99402.52
2017-11-04T18:05:24.170Z,99410.87
2017-11-04T18:07:51.650Z,99409.39
2017-11-04T18:10:19.067Z,99408.20
2017-11-04T18:12:46.449Z,99402.42
2017-11-04T18:15:13.842Z,99404.86
2017-11-04T18:17:43.352Z,99404.98
2017-11-04T18:20:10.738Z,99396.25
2017-11-04T18:22:38.135Z,99400.97
2017-11-04T18:25:05.518Z,99401.77
2017-11-04T18:27:32.941Z,99400.72
2017-11-04T18:30:00.330Z,99400.86
2017-11-04T18:32:27.725Z,99404.19
2017-11-04T18:34:55.234Z,99409.06
2017-11-04T18:37:22.618Z,99411.88
2017-11-04T18:39:50.010Z,99411.34
2017-11-04T18:42:17.410Z,99409.43
2017-11-04T18:44:44.801Z,99409.67
2017-11-04T18:47:12.194Z,99409.00
2017-11-04T18:49:39.594Z,99409.95
2017-11-04T18:52:07.078Z,99406.45
2017-11-04T18:54:34.467Z,99413.57
2017-11-04T18:57:01.879Z,99410.21
2017-11-04T18:59:29.262Z,99405.23
2017-11-04T19:01:56.649Z,99399.31
2017-11-04T19:04:24.054Z,99404.27
2017-11-04T19:06:51.451Z,99401.42
2017-11-04T19:09:18.831Z,99403.74
2017-11-04T19:11:46.240Z,99411.00
2017-11-04T19:14:14.653Z,99397.98
2017-11-04T19:16:42.039Z,99405.38
2017-11-04T19:19:09.438Z,99409.16
2017-11-04T19:21:36.834Z,99401.48
2017-11-04T19:24:04.226Z,99401.92
2017-11-04T19:26:31.755Z,99399.09
2017-11-04T19:28:59.144Z,99401.39
2017-11-04T19:31:26.530Z,99404.08
2017-11-04T19:33:53.929Z,99405.31
2017-11-04T19:36:21.319Z,99402.62
2017-11-04T19:38:48.740Z,99402.88
2017-11-04T19:41:16.126Z,99401.67
2017-11-04T19:43:43.516Z,99403.00
2017-11-04T19:46:10.897Z,99407.72
2017-11-04T19:48:38.304Z,99404.27
2017-11-04T19:51:05.691Z,99403.08
2017-11-04T19:53:33.082Z,99409.95
2017-11-04T19:56:02.113Z,99413.05
2017-11-04T19:58:29.698Z,99419.77
2017-11-04T20:00:57.146Z,99411.45
2017-11-04T20:03:24.554Z,99409.30
2017-11-04T20:05:51.952Z,99418.69
2017-11-04T20:08:19.341Z,99414.25
2017-11-04T20:10:46.745Z,99418.58
2017-11-04T20:13:15.133Z,99422.33
2017-11-04T20:15:42.586Z,99426.09
2017-11-04T20:18:09.990Z,99428.75
2017-11-04T20:20:37.378Z,99426.75
2017-11-04T20:23:04.777Z,99427.28
2017-11-04T20:25:34.098Z,99428.59
2017-11-04T20:28:02.379Z,99429.78
2017-11-04T20:30:29.774Z,99427.38
2017-11-04T20:32:57.198Z,99428.19
2017-11-04T20:35:24.916Z,99428.59
2017-11-04T20:37:52.313Z,99430.88
2017-11-04T20:40:19.726Z,99435.95
2017-11-04T20:42:47.102Z,99426.70
2017-11-04T20:45:14.490Z,99424.42
2017-11-04T20:47:41.902Z,99418.45
2017-11-04T20:50:09.298Z,99423.67
2017-11-04T20:52:36.754Z,99420.94
2017-11-04T20:55:04.158Z,99423.33
2017-11-04T20:57:31.553Z,99422.95
2017-11-04T20:59:58.942Z,99422.13
2017-11-04T21:02:26.362Z,99420.67
2017-11-04T21:04:53.753Z,99425.62
2017-11-04T21:07:21.370Z,99422.40
2017-11-04T21:09:48.782Z,99419.97
2017-11-04T21:12:16.178Z,99416.63
2017-11-04T21:14:43.576Z,99421.47
2017-11-04T21:17:10.966Z,99416.26
2017-11-04T21:19:38.354Z,99421.73
2017-11-04T21:22:05.746Z,99420.92
2017-11-04T21:24:33.158Z,99417.03
2017-11-04T21:27:00.542Z,99421.27
2017-11-04T21:29:27.930Z,99414.93
2017-11-04T21:31:56.170Z,99414.81
2017-11-04T21:34:23.554Z,99416.31
2017-11-04T21:36:50.951Z,99421.95
2017-11-04T21:39:18.350Z,99421.30
2017-11-04T21:41:45.750Z,99423.44
2017-11-04T21:44:13.134Z,99415.77
2017-11-04T21:46:40.535Z,99407.88
2017-11-04T21:49:07.929Z,99410.30
2017-11-04T21:51:35.319Z,99406.26
2017-11-04T21:54:02.727Z,99406.78
2017-11-04T21:56:30.114Z,99403.42
2017-11-04T21:58:57.502Z,99405.97
2017-11-04T22:01:24.913Z,99406.90
2017-11-04T22:03:52.293Z,99409.05
2017-11-04T22:06:19.682Z,99407.45
2017-11-04T22:08:47.086Z,99409.84
2017-11-04T22:11:14.470Z,99403.35
2017-11-04T22:13:41.862Z,99405.49
2017-11-04T22:16:09.270Z,99400.24
2017-11-04T22:18:36.654Z,99401.56
2017-11-04T22:21:04.041Z,99402.48
2017-11-04T22:23:31.442Z,99406.27
2017-11-04T22:25:58.831Z,99402.92
2017-11-04T22:28:26.300Z,99405.06
2017-11-04T22:30:53.697Z,99408.98
2017-11-04T22:33:21.078Z,99410.16
2017-11-04T22:35:48.477Z,99413.11
2017-11-04T22:38:15.899Z,99403.73
2017-11-04T22:40:43.299Z,99402.55
2017-11-04T22:43:10.674Z,99396.88
2017-11-04T22:45:38.085Z,99401.97
2017-11-04T22:48:05.478Z,99397.80
2017-11-04T22:50:32.865Z,99390.69
2017-11-04T22:53:00.270Z,99401.27
2017-11-04T22:55:27.657Z,99392.53
2017-11-04T22:57:55.047Z,99391.48
2017-11-04T23:00:22.462Z,99396.55
2017-11-04T23:02:49.850Z,99394.30
2017-11-04T23:05:17.242Z,99394.01
2017-11-04T23:07:44.642Z,99392.66
2017-11-04T23:10:12.040Z,99396.22
2017-11-04T23:12:39.426Z,99387.87
2017-11-04T23:15:06.819Z,99390.71
2017-11-04T23:17:34.216Z,99387.50
2017-11-04T23:20:01.602Z,99386.27
2017-11-04T23:22:29.014Z,99386.42
2017-11-04T23:24:56.401Z,99381.59
2017-11-04T23:27:23.798Z,99377.42
2017-11-04T23:29:51.202Z,99374.30
2017-11-04T23:32:18.591Z,99376.02
2017-11-04T23:34:45.982Z,99376.55
2017-11-04T23:37:13.397Z,99370.03
2017-11-04T23:39:40.781Z,99366.77
2017-11-04T23:42:08.174Z,99369.02
2017-11-04T23:44:35.590Z,99363.73
2017-11-04T23:47:02.989Z,99366.40
2017-11-04T23:49:30.367Z,99360.19
2017-11-04T23:51:57.770Z,99365.00
2017-11-04T23:54:25.166Z,99363.66
2017-11-04T23:56:52.561Z,99358.55
2017-11-04T23:59:19.959Z,99362.13
